createdAt,value
2022-12-14T00:02:56.858Z,99191.03
2022-12-14T00:05:59.612Z,99207.78
2022-12-14T00:09:05.841Z,99177.91
2022-12-14T00:12:10.114Z,99207.75
2022-12-14T00:15:13.196Z,99206.94
2022-12-14T00:18:22.497Z,99195.56
2022-12-14T00:21:26.241Z,99191.97
2022-12-14T00:24:33.654Z,99196.44
2022-12-14T00:27:36.679Z,99199.97
2022-12-14T00:30:39.444Z,99199.03
2022-12-14T00:33:46.809Z,99194.50
2022-12-14T00:36:49.522Z,99205.22
2022-12-14T00:39:56.174Z,99199.00
2022-12-14T00:42:58.892Z,99191.88
2022-12-14T00:46:08.490Z,99182.09
2022-12-14T00:49:11.685Z,99178.47
2022-12-14T00:52:14.574Z,99172.31
2022-12-14T00:55:18.651Z,99168.69
2022-12-14T00:58:23.267Z,99169.53
2022-12-14T01:01:26.690Z,99155.28
2022-12-14T01:04:32.792Z,99151.84
2022-12-14T01:07:37.378Z,99164.31
2022-12-14T01:10:41.859Z,99155.41
2022-12-14T01:13:44.635Z,99164.25
2022-12-14T01:16:58.224Z,99159.94
2022-12-14T01:20:00.930Z,99159.91
2022-12-14T01:23:03.816Z,99165.13
2022-12-14T01:26:12.142Z,99157.25
2022-12-14T01:29:16.249Z,99148.41
2022-12-14T01:32:18.998Z,99146.66
2022-12-14T01:35:21.768Z,99154.53
2022-12-14T01:38:24.485Z,99158.84
2022-12-14T01:41:30.741Z,99152.66
2022-12-14T01:44:55.833Z,99129.38
2022-12-14T01:48:04.451Z,99122.28
2022-12-14T01:51:07.549Z,99134.84
2022-12-14T01:54:13.641Z,99142.94
2022-12-14T01:57:22.020Z,99121.66
2022-12-14T02:00:25.017Z,99108.03
2022-12-14T02:03:32.011Z,99109.31
2022-12-14T02:06:42.876Z,99102.34
2022-12-14T02:09:48.102Z,99097.91
2022-12-14T02:12:58.318Z,99080.13
2022-12-14T02:16:01.958Z,99077.53
2022-12-14T02:19:04.779Z,99081.06
2022-12-14T02:22:36.695Z,99069.44
2022-12-14T02:26:06.549Z,99070.16
2022-12-14T02:29:36.778Z,99058.50
2022-12-14T02:32:58.888Z,99053.97
2022-12-14T02:36:11.905Z,99059.78
2022-12-14T02:39:25.814Z,99060.84
2022-12-14T02:42:40.982Z,99019.53
2022-12-14T02:45:51.466Z,99058.19
2022-12-14T02:49:00.357Z,99043.16
2022-12-14T02:52:08.605Z,99049.50
2022-12-14T02:55:17.113Z,99043.13
2022-12-14T02:58:24.874Z,99033.47
2022-12-14T03:01:31.145Z,99018.28
2022-12-14T03:04:48.247Z,99024.75
2022-12-14T03:07:53.827Z,99027.41
2022-12-14T03:10:59.481Z,99024.75
2022-12-14T03:14:07.938Z,99011.31
2022-12-14T03:17:19.793Z,99023.75
2022-12-14T03:20:26.421Z,99016.53
2022-12-14T03:23:34.837Z,99001.13
2022-12-14T03:26:47.667Z,99007.28
2022-12-14T03:29:57.609Z,98997.56
2022-12-14T03:33:14.468Z,99003.03
2022-12-14T03:36:26.338Z,98993.06
2022-12-14T03:39:35.777Z,99002.31
2022-12-14T03:42:49.414Z,98993.41
2022-12-14T03:45:59.337Z,98998.00
2022-12-14T03:49:15.439Z,98984.31
2022-12-14T03:52:26.460Z,98976.94
2022-12-14T03:55:39.746Z,98988.00
2022-12-14T03:58:57.341Z,98987.22
2022-12-14T04:02:15.073Z,98976.69
2022-12-14T04:05:28.033Z,98966.63
2022-12-14T04:08:41.751Z,98947.56
2022-12-14T04:12:09.792Z,98954.50
2022-12-14T04:15:32.855Z,98956.59
2022-12-14T04:19:00.445Z,98958.53
2022-12-14T04:22:08.917Z,98960.44
2022-12-14T04:25:34.730Z,98965.03
2022-12-14T04:29:07.530Z,98959.69
2022-12-14T04:32:14.698Z,98940.59
2022-12-14T04:35:24.785Z,98942.34
2022-12-14T04:38:37.908Z,98950.25
2022-12-14T04:41:44.671Z,98930.84
2022-12-14T04:44:52.233Z,98926.31
2022-12-14T04:48:11.315Z,98906.22
2022-12-14T04:51:20.982Z,98905.81
2022-12-14T04:54:28.943Z,98902.28
2022-12-14T04:57:38.143Z,98899.63
2022-12-14T05:00:58.965Z,98903.66
2022-12-14T05:04:12.693Z,98905.56
2022-12-14T05:07:34.123Z,98920.59
2022-12-14T05:10:45.484Z,98922.38
2022-12-14T05:13:51.308Z,98916.19
2022-12-14T05:16:54.242Z,98918.38
2022-12-14T05:19:56.979Z,98918.56
2022-12-14T05:22:59.945Z,98923.97
2022-12-14T05:26:04.869Z,98929.91
2022-12-14T05:29:07.711Z,98913.09
2022-12-14T05:32:12.446Z,98915.66
2022-12-14T05:35:15.802Z,98911.00
2022-12-14T05:38:18.576Z,98915.56
2022-12-14T05:41:22.609Z,98905.88
2022-12-14T05:44:25.307Z,98903.94
2022-12-14T05:47:28.175Z,98904.78
2022-12-14T05:50:31.251Z,98899.22
2022-12-14T05:53:34.176Z,98902.78
2022-12-14T05:56:38.427Z,98895.66
2022-12-14T05:59:41.108Z,98899.47
2022-12-14T06:02:45.742Z,98914.41
2022-12-14T06:05:48.633Z,98905.25
2022-12-14T06:08:52.288Z,98900.59
2022-12-14T06:11:56.311Z,98891.63
2022-12-14T06:14:58.978Z,98890.91
2022-12-14T06:18:01.612Z,98889.13
2022-12-14T06:21:04.679Z,98881.22
2022-12-14T06:24:08.687Z,98863.59
2022-12-14T06:27:12.890Z,98860.03
2022-12-14T06:30:17.011Z,98851.06
2022-12-14T06:33:19.754Z,98848.03
2022-12-14T06:36:25.330Z,98850.34
2022-12-14T06:39:28.058Z,98841.50
2022-12-14T06:42:35.289Z,98843.59
2022-12-14T06:45:40.911Z,98842.47
2022-12-14T06:48:50.664Z,98832.16
2022-12-14T06:51:53.747Z,98830.53
2022-12-14T06:54:56.485Z,98834.13
2022-12-14T06:58:03.521Z,98821.59
2022-12-14T07:01:08.554Z,98826.03
2022-12-14T07:04:13.769Z,98828.00
2022-12-14T07:07:16.589Z,98832.56
2022-12-14T07:10:21.630Z,98823.78
2022-12-14T07:13:25.961Z,98816.81
2022-12-14T07:16:30.339Z,98823.97
2022-12-14T07:19:33.172Z,98815.94
2022-12-14T07:22:39.242Z,98803.47
2022-12-14T07:25:41.977Z,98796.47
2022-12-14T07:28:53.407Z,98774.47
2022-12-14T07:31:57.060Z,98776.28
2022-12-14T07:34:59.726Z,98781.56
2022-12-14T07:38:02.454Z,98782.38
2022-12-14T07:41:10.886Z,98781.41
2022-12-14T07:44:15.237Z,98790.97
2022-12-14T07:47:20.269Z,98783.88
2022-12-14T07:50:24.073Z,98792.50
2022-12-14T07:53:32.176Z,98766.50
2022-12-14T07:56:39.737Z,98762.13
2022-12-14T07:59:44.705Z,98756.56
2022-12-14T08:02:47.737Z,98777.00
2022-12-14T08:05:50.514Z,98779.56
2022-12-14T08:08:54.597Z,98767.31
2022-12-14T08:12:00.330Z,98746.16
2022-12-14T08:15:05.621Z,98747.19
2022-12-14T08:18:08.306Z,98765.56
2022-12-14T08:21:14.093Z,98779.66
2022-12-14T08:24:26.020Z,98787.56
2022-12-14T08:27:31.333Z,98779.88
2022-12-14T08:30:39.417Z,98788.59
2022-12-14T08:33:43.336Z,98766.19
2022-12-14T08:36:46.024Z,98764.38
2022-12-14T08:39:50.575Z,98763.03
2022-12-14T08:42:53.276Z,98771.69
2022-12-14T08:45:59.884Z,98774.63
2022-12-14T08:49:03.118Z,98749.66
2022-12-14T08:52:11.094Z,98789.53
2022-12-14T08:55:13.841Z,98799.13
2022-12-14T08:58:19.566Z,98792.84
2022-12-14T09:01:32.162Z,98787.63
2022-12-14T09:04:35.973Z,98789.59
2022-12-14T09:07:38.703Z,98790.28
2022-12-14T09:10:41.403Z,98791.88
2022-12-14T09:13:44.783Z,98789.84
2022-12-14T09:16:48.917Z,98813.59
2022-12-14T09:19:51.667Z,98820.53
2022-12-14T09:22:54.751Z,98799.13
2022-12-14T09:26:02.650Z,98786.13
2022-12-14T09:29:15.960Z,98776.22
2022-12-14T09:32:19.969Z,98765.53
2022-12-14T09:35:23.122Z,98772.91
2022-12-14T09:38:25.803Z,98789.03
2022-12-14T09:41:50.914Z,98784.44
2022-12-14T09:45:01.872Z,98784.56
2022-12-14T09:48:19.410Z,98783.22
2022-12-14T09:51:23.961Z,98781.72
2022-12-14T09:54:32.948Z,98781.88
2022-12-14T09:57:38.985Z,98764.81
2022-12-14T10:00:51.364Z,98753.28
2022-12-14T10:04:06.028Z,98748.00
2022-12-14T10:07:18.116Z,98751.31
2022-12-14T10:10:26.592Z,98752.00
2022-12-14T10:13:49.775Z,98732.28
2022-12-14T10:17:05.914Z,98733.81
2022-12-14T10:20:20.146Z,98729.13
2022-12-14T10:23:26.045Z,98730.56
2022-12-14T10:26:38.781Z,98740.53
2022-12-14T10:29:45.019Z,98726.16
2022-12-14T10:32:59.543Z,98725.94
2022-12-14T10:36:18.863Z,98720.91
2022-12-14T10:39:31.138Z,98722.44
2022-12-14T10:42:43.561Z,98720.09
2022-12-14T10:46:02.285Z,98717.97
2022-12-14T10:49:14.743Z,98722.59
2022-12-14T10:52:23.299Z,98727.72
2022-12-14T10:55:30.387Z,98714.50
2022-12-14T10:58:33.569Z,98731.13
2022-12-14T11:01:36.778Z,98720.88
2022-12-14T11:04:45.806Z,98697.84
2022-12-14T11:07:50.070Z,98713.44
2022-12-14T11:11:13.943Z,98722.97
2022-12-14T11:14:23.608Z,98709.63
2022-12-14T11:17:35.535Z,98707.38
2022-12-14T11:20:39.491Z,98701.16
2022-12-14T11:23:46.048Z,98691.66
2022-12-14T11:26:50.825Z,98703.84
2022-12-14T11:29:53.558Z,98713.47
2022-12-14T11:32:56.473Z,98705.84
2022-12-14T11:36:02.879Z,98722.94
2022-12-14T11:39:19.628Z,98718.63
2022-12-14T11:42:23.414Z,98722.19
2022-12-14T11:45:31.476Z,98713.41
2022-12-14T11:48:38.519Z,98707.19
2022-12-14T11:51:59.821Z,98703.38
2022-12-14T11:55:13.408Z,98709.47
2022-12-14T11:58:20.107Z,98709.47
2022-12-14T12:01:26.676Z,98699.75
2022-12-14T12:04:31.531Z,98706.25
2022-12-14T12:07:37.221Z,98694.09
2022-12-14T12:10:45.185Z,98703.69
2022-12-14T12:13:59.465Z,98706.38
2022-12-14T12:17:08.071Z,98692.84
2022-12-14T12:20:21.549Z,98687.38
2022-12-14T12:23:32.696Z,98687.38
2022-12-14T12:26:42.298Z,98680.00
2022-12-14T12:29:52.041Z,98682.38
2022-12-14T12:33:00.549Z,98695.03
2022-12-14T12:36:06.546Z,98692.59
2022-12-14T12:39:15.998Z,98691.00
2022-12-14T12:42:27.288Z,98697.09
2022-12-14T12:45:36.198Z,98696.88
2022-12-14T12:48:44.464Z,98694.19
2022-12-14T12:51:50.380Z,98696.94
2022-12-14T12:55:02.933Z,98697.75
2022-12-14T12:58:10.319Z,98695.19
2022-12-14T13:01:24.214Z,98691.63
2022-12-14T13:04:33.681Z,98692.31
2022-12-14T13:07:44.850Z,98700.50
2022-12-14T13:14:30.607Z,98700.50
2022-12-14T13:17:38.712Z,98703.91
2022-12-14T13:20:41.584Z,98709.28
2022-12-14T13:23:45.661Z,98703.84
2022-12-14T13:27:18.408Z,98715.44
2022-12-14T13:30:36.388Z,98719.16
2022-12-14T13:34:08.163Z,98686.94
2022-12-14T13:37:51.127Z,98719.31
2022-12-14T13:41:08.282Z,98726.41
2022-12-14T13:44:44.085Z,98737.94
2022-12-14T13:47:53.992Z,98729.09
2022-12-14T13:51:02.617Z,98729.16
2022-12-14T13:54:08.997Z,98738.84
2022-12-14T13:57:15.257Z,98745.81
2022-12-14T14:00:51.663Z,98755.53
2022-12-14T14:04:18.363Z,98765.53
2022-12-14T14:07:50.826Z,98763.88
2022-12-14T14:11:35.300Z,98769.28
2022-12-14T14:14:37.546Z,98764.75
2022-12-14T14:17:42.812Z,98772.94
2022-12-14T14:20:55.252Z,98754.41
2022-12-14T14:24:19.396Z,98774.63
2022-12-14T14:27:24.877Z,98771.97
2022-12-14T14:30:30.200Z,98769.50
2022-12-14T14:33:48.591Z,98780.13
2022-12-14T14:36:57.278Z,98779.19
2022-12-14T14:40:38.299Z,98787.25
2022-12-14T14:43:52.322Z,98788.28
2022-12-14T14:46:58.122Z,98783.84
2022-12-14T14:50:04.310Z,98792.81
2022-12-14T14:53:28.901Z,98789.22
2022-12-14T14:56:40.043Z,98790.06
2022-12-14T14:59:50.984Z,98797.25
2022-12-14T15:03:00.212Z,98797.25
2022-12-14T15:06:04.026Z,98805.06
2022-12-14T15:09:21.032Z,98803.28
2022-12-14T15:12:36.806Z,98800.59
2022-12-14T15:15:43.425Z,98805.00
2022-12-14T15:18:46.353Z,98812.13
2022-12-14T15:21:50.400Z,98807.72
2022-12-14T15:24:57.466Z,98819.25
2022-12-14T15:28:09.427Z,98822.81
2022-12-14T15:31:12.279Z,98836.84
2022-12-14T15:34:18.505Z,98825.34
2022-12-14T15:37:27.845Z,98836.72
2022-12-14T15:40:32.666Z,98837.38
2022-12-14T15:43:35.426Z,98841.78
2022-12-14T15:46:40.439Z,98852.31
2022-12-14T15:49:44.106Z,98850.59
2022-12-14T15:52:47.947Z,98852.38
2022-12-14T15:56:00.255Z,98857.75
2022-12-14T15:59:15.940Z,98869.44
2022-12-14T16:02:27.221Z,98878.31
2022-12-14T16:05:31.238Z,98883.50
2022-12-14T16:08:36.406Z,98878.09
2022-12-14T16:11:44.249Z,98876.16
2022-12-14T16:14:54.085Z,98877.03
2022-12-14T16:18:02.227Z,98886.78
2022-12-14T16:21:05.691Z,98897.41
2022-12-14T16:24:24.004Z,98893.91
2022-12-14T16:27:29.058Z,98899.94
2022-12-14T16:30:33.366Z,98905.16
2022-12-14T16:33:39.410Z,98902.50
2022-12-14T16:37:08.477Z,98915.78
2022-12-14T16:40:24.671Z,98905.34
2022-12-14T16:43:34.059Z,98924.75
2022-12-14T16:46:44.266Z,98920.34
2022-12-14T16:49:56.041Z,98933.72
2022-12-14T16:53:16.874Z,98934.66
2022-12-14T16:56:22.775Z,98947.94
2022-12-14T16:59:31.333Z,98948.84
2022-12-14T17:02:36.605Z,98944.41
2022-12-14T17:05:41.931Z,98950.63
2022-12-14T17:08:51.963Z,98954.84
2022-12-14T17:12:07.277Z,98950.63
2022-12-14T17:15:23.786Z,98965.72
2022-12-14T17:18:35.898Z,98961.34
2022-12-14T17:21:39.452Z,98945.50
2022-12-14T17:24:42.938Z,98982.53
2022-12-14T17:27:46.053Z,98986.19
2022-12-14T17:30:51.018Z,98989.81
2022-12-14T17:33:55.041Z,98990.69
2022-12-14T17:36:58.381Z,98995.06
2022-12-14T17:40:02.241Z,98992.31
2022-12-14T17:43:10.426Z,98994.88
2022-12-14T17:46:15.056Z,98981.50
2022-12-14T17:49:33.854Z,98975.25
2022-12-14T17:52:36.830Z,98981.44
2022-12-14T17:55:39.648Z,98985.06
2022-12-14T17:58:45.404Z,98961.44
2022-12-14T18:01:49.831Z,98991.50
2022-12-14T18:04:53.158Z,98995.13
2022-12-14T18:07:55.922Z,98998.72
2022-12-14T18:11:00.939Z,98993.47
2022-12-14T18:14:03.950Z,99000.53
2022-12-14T18:17:11.405Z,98992.56
2022-12-14T18:20:15.188Z,98990.66
2022-12-14T18:23:19.216Z,98999.56
2022-12-14T18:26:23.915Z,98997.75
2022-12-14T18:29:27.644Z,98998.63
2022-12-14T18:32:31.932Z,98993.66
2022-12-14T18:35:38.429Z,98993.88
2022-12-14T18:38:41.128Z,98989.59
2022-12-14T18:41:43.855Z,99000.50
2022-12-14T18:44:46.656Z,98997.22
2022-12-14T18:47:51.465Z,99008.09
2022-12-14T18:50:55.799Z,99010.13
2022-12-14T18:54:00.666Z,99008.56
2022-12-14T18:57:03.445Z,99014.88
2022-12-14T19:00:11.350Z,99022.94
2022-12-14T19:03:16.132Z,99022.13
2022-12-14T19:06:43.593Z,99037.16
2022-12-14T19:09:44.255Z,99046.97
2022-12-14T19:12:48.540Z,99035.59
2022-12-14T19:15:51.410Z,99054.94
2022-12-14T19:18:56.662Z,99062.94
2022-12-14T19:21:59.419Z,99060.25
2022-12-14T19:25:02.147Z,99062.03
2022-12-14T19:28:32.808Z,99050.81
2022-12-14T19:31:36.219Z,99081.75
2022-12-14T19:34:40.313Z,99079.13
2022-12-14T19:37:43.049Z,99085.31
2022-12-14T19:40:46.893Z,99080.13
2022-12-14T19:43:49.673Z,99095.88
2022-12-14T19:46:52.906Z,99095.81
2022-12-14T19:49:57.471Z,99101.97
2022-12-14T19:53:00.501Z,99103.72
2022-12-14T19:56:04.424Z,99113.38
2022-12-14T19:59:07.242Z,99110.59
2022-12-14T20:02:13.250Z,99102.66
2022-12-14T20:05:18.301Z,99107.78
2022-12-14T20:08:21.064Z,99101.50
2022-12-14T20:11:24.466Z,99105.03
2022-12-14T20:14:30.303Z,99098.84
2022-12-14T20:17:33.198Z,99094.44
2022-12-14T20:20:40.416Z,99096.34
2022-12-14T20:23:43.241Z,99103.50
2022-12-14T20:26:46.235Z,99106.38
2022-12-14T20:29:52.144Z,99108.28
2022-12-14T20:32:55.028Z,99113.69
2022-12-14T20:35:59.716Z,99119.06
2022-12-14T20:39:03.392Z,99122.56
2022-12-14T20:42:06.231Z,99135.06
2022-12-14T20:45:15.298Z,99132.47
2022-12-14T20:48:17.985Z,99134.25
2022-12-14T20:51:22.220Z,99139.59
2022-12-14T20:54:25.555Z,99137.84
2022-12-14T20:57:28.443Z,99144.06
2022-12-14T21:00:31.203Z,99136.16
2022-12-14T21:03:37.387Z,99122.19
2022-12-14T21:06:43.500Z,99146.84
2022-12-14T21:09:46.505Z,99141.53
2022-12-14T21:12:49.724Z,99157.38
2022-12-14T21:15:55.539Z,99162.69
2022-12-14T21:18:58.263Z,99162.59
2022-12-14T21:22:03.347Z,99168.84
2022-12-14T21:25:07.320Z,99154.69
2022-12-14T21:28:10.411Z,99157.34
2022-12-14T21:31:15.879Z,99157.34
2022-12-14T21:34:20.719Z,99165.25
2022-12-14T21:37:24.917Z,99157.28
2022-12-14T21:40:45.144Z,99158.13
2022-12-14T21:43:47.922Z,99167.81
2022-12-14T21:46:50.623Z,99146.75
2022-12-14T21:49:53.835Z,99161.59
2022-12-14T21:52:58.004Z,99167.88
2022-12-14T21:56:20.957Z,99160.81
2022-12-14T21:59:26.437Z,99182.00
2022-12-14T22:02:30.424Z,99164.44
2022-12-14T22:05:33.282Z,99173.97
2022-12-14T22:08:37.540Z,99174.84
2022-12-14T22:11:40.222Z,99183.69
2022-12-14T22:14:43.533Z,99183.69
2022-12-14T22:17:46.302Z,99187.25
2022-12-14T22:20:49.108Z,99190.84
2022-12-14T22:23:54.643Z,99192.56
2022-12-14T22:26:57.981Z,99186.44
2022-12-14T22:30:00.654Z,99185.53
2022-12-14T22:33:03.616Z,99180.22
2022-12-14T22:36:10.114Z,99186.38
2022-12-14T22:39:14.895Z,99190.78
2022-12-14T22:42:17.711Z,99204.03
2022-12-14T22:45:21.045Z,99202.25
2022-12-14T22:48:23.791Z,99199.59
2022-12-14T22:51:29.097Z,99215.50
2022-12-14T22:54:33.175Z,99214.63
2022-12-14T22:57:41.600Z,99209.34
2022-12-14T23:00:44.571Z,99222.59
2022-12-14T23:03:48.379Z,99206.78
2022-12-14T23:06:51.232Z,99222.53
2022-12-14T23:10:12.702Z,99219.94
2022-12-14T23:13:33.589Z,99220.81
2022-12-14T23:16:53.968Z,99219.97
2022-12-14T23:20:14.135Z,99216.50
2022-12-14T23:23:34.700Z,99205.03
2022-12-14T23:26:56.553Z,99208.66
2022-12-14T23:30:17.540Z,99209.63
2022-12-14T23:33:37.922Z,99206.97
2022-12-14T23:36:58.092Z,99201.69
2022-12-14T23:40:18.477Z,99195.47
2022-12-14T23:43:39.812Z,99187.47
2022-12-14T23:47:00.575Z,99188.28
2022-12-14T23:50:21.086Z,99184.78
2022-12-14T23:53:41.595Z,99202.28
2022-12-14T23:57:01.530Z,99201.41
